Terminal Aerodrome Forecast
Issued by NWS

Home | Current Version | Previous Version | Text Only | Print | Product List | Glossary On
Versions: 1 2 3 4 5 6 7 8 9 10 11 12
000
FTUS42 KMLB 231121
TAFLEE
TAF
KLEE 231121Z 2312/2412 08006KT P6SM SCT025 BKN250
     FM231500 06008KT P6SM VCSH SCT030 SCT150 BKN250
     FM231900 07012G18KT P6SM VCTS SCT030CB BKN050 BKN250
     FM240100 05009KT P6SM VCSH SCT030 BKN080 BKN250
     FM240600 03005KT P6SM SCT012 BKN060
      TEMPO 2409/2412 BKN012=

USA.gov is the U.S. government's official web portal to all federal, state and local government web resources and services.